createdAt,value
2023-04-26T00:02:07.685Z,99654.81
2023-04-26T00:04:35.937Z,99652.37
2023-04-26T00:07:04.075Z,99652.38
2023-04-26T00:09:32.286Z,99655.02
2023-04-26T00:12:00.298Z,99658.73
2023-04-26T00:14:28.008Z,99656.30
2023-04-26T00:16:56.454Z,99657.02
2023-04-26T00:19:24.973Z,99659.38
2023-04-26T00:21:52.697Z,99662.98
2023-04-26T00:24:21.082Z,99665.53
2023-04-26T00:26:48.899Z,99667.27
2023-04-26T00:29:16.625Z,99668.38
2023-04-26T00:31:44.463Z,99666.08
2023-04-26T00:34:12.401Z,99674.48
2023-04-26T00:36:40.225Z,99673.66
2023-04-26T00:39:09.271Z,99676.61
2023-04-26T00:41:37.036Z,99676.58
2023-04-26T00:44:05.030Z,99677.76
2023-04-26T00:46:32.884Z,99677.64
2023-04-26T00:49:00.640Z,99675.66
2023-04-26T00:51:28.582Z,99671.74
2023-04-26T00:53:56.888Z,99675.63
2023-04-26T00:56:25.497Z,99677.06
2023-04-26T00:58:53.510Z,99679.41
2023-04-26T01:01:22.714Z,99682.99
2023-04-26T01:03:50.637Z,99683.88
2023-04-26T01:06:18.591Z,99685.15
2023-04-26T01:08:47.207Z,99683.17
2023-04-26T01:11:15.193Z,99687.23
2023-04-26T01:13:43.534Z,99688.94
2023-04-26T01:16:12.233Z,99693.42
2023-04-26T01:18:41.695Z,99697.11
2023-04-26T01:21:11.491Z,99693.64
2023-04-26T01:23:39.307Z,99696.22
2023-04-26T01:26:07.024Z,99698.91
2023-04-26T01:28:34.724Z,99699.08
2023-04-26T01:31:05.168Z,99699.39
2023-04-26T01:33:32.978Z,99701.83
2023-04-26T01:36:00.769Z,99708.09
2023-04-26T01:38:30.054Z,99706.05
2023-04-26T01:40:57.864Z,99704.26
2023-04-26T01:43:25.637Z,99708.48
2023-04-26T01:45:53.463Z,99706.89
2023-04-26T01:48:40.972Z,99708.29
2023-04-26T01:51:08.711Z,99709.89
2023-04-26T01:53:36.735Z,99711.09
2023-04-26T01:56:05.985Z,99711.05
2023-04-26T01:58:33.746Z,99711.08
2023-04-26T02:01:07.116Z,99712.17
2023-04-26T02:03:35.802Z,99712.52
2023-04-26T02:06:04.241Z,99711.85
2023-04-26T02:08:32.043Z,99717.45
2023-04-26T02:10:59.912Z,99716.50
2023-04-26T02:13:27.610Z,99718.05
2023-04-26T02:15:55.867Z,99717.52
2023-04-26T02:18:23.758Z,99717.84
2023-04-26T02:20:51.702Z,99715.96
2023-04-26T02:23:20.237Z,99718.30
2023-04-26T02:25:49.091Z,99716.94
2023-04-26T02:28:19.227Z,99716.98
2023-04-26T02:30:46.961Z,99720.98
2023-04-26T02:33:14.690Z,99721.71
2023-04-26T02:35:42.736Z,99724.86
2023-04-26T02:38:11.722Z,99712.85
2023-04-26T02:40:39.525Z,99714.84
2023-04-26T02:43:08.093Z,99718.88
2023-04-26T02:45:42.029Z,99725.12
2023-04-26T02:48:11.348Z,99725.45
2023-04-26T02:50:39.361Z,99722.59
2023-04-26T02:53:07.254Z,99726.90
2023-04-26T02:55:34.996Z,99730.88
2023-04-26T02:58:02.865Z,99731.30
2023-04-26T03:00:30.834Z,99732.48
2023-04-26T03:02:58.735Z,99732.55
2023-04-26T03:05:26.514Z,99731.14
2023-04-26T03:07:54.355Z,99729.52
2023-04-26T03:10:22.063Z,99731.36
2023-04-26T03:12:50.347Z,99731.77
2023-04-26T03:15:18.420Z,99730.52
2023-04-26T03:17:46.582Z,99731.77
2023-04-26T03:20:15.416Z,99732.75
2023-04-26T03:22:43.747Z,99735.39
2023-04-26T03:25:11.805Z,99737.35
2023-04-26T03:27:39.548Z,99738.48
2023-04-26T03:30:08.369Z,99738.89
2023-04-26T03:32:36.932Z,99742.39
2023-04-26T03:35:05.477Z,99748.14
2023-04-26T03:37:33.301Z,99753.63
2023-04-26T03:40:08.432Z,99751.73
2023-04-26T03:42:36.991Z,99753.11
2023-04-26T03:45:05.571Z,99755.00
2023-04-26T03:47:33.594Z,99753.88
2023-04-26T03:50:01.658Z,99753.19
2023-04-26T03:52:29.370Z,99754.90
2023-04-26T03:54:57.623Z,99755.27
2023-04-26T03:57:25.716Z,99760.63
2023-04-26T03:59:53.723Z,99762.63
2023-04-26T04:02:21.928Z,99765.89
2023-04-26T04:04:50.246Z,99769.73
2023-04-26T04:07:19.121Z,99773.66
2023-04-26T04:09:46.984Z,99772.32
2023-04-26T04:12:15.356Z,99775.95
2023-04-26T04:14:44.087Z,99780.48
2023-04-26T04:17:12.100Z,99777.70
2023-04-26T04:19:40.220Z,99780.20
2023-04-26T04:22:08.357Z,99780.56
2023-04-26T04:24:37.466Z,99784.96
2023-04-26T04:27:05.251Z,99784.41
2023-04-26T04:29:33.780Z,99786.71
2023-04-26T04:32:02.162Z,99788.09
2023-04-26T04:34:30.288Z,99786.27
2023-04-26T04:36:58.146Z,99790.42
2023-04-26T04:39:26.068Z,99791.80
2023-04-26T04:41:54.475Z,99794.48
2023-04-26T04:44:24.084Z,99796.59
2023-04-26T04:46:53.330Z,99800.38
2023-04-26T04:49:21.359Z,99801.96
2023-04-26T04:51:49.412Z,99805.34
2023-04-26T04:54:18.643Z,99806.32
2023-04-26T04:56:48.504Z,99810.32
2023-04-26T04:59:17.269Z,99815.27
2023-04-26T05:01:45.329Z,99815.35
2023-04-26T05:04:15.706Z,99819.45
2023-04-26T05:06:44.535Z,99819.97
2023-04-26T05:09:13.233Z,99822.11
2023-04-26T05:11:41.807Z,99825.77
2023-04-26T05:14:11.415Z,99826.45
2023-04-26T05:16:39.272Z,99827.61
2023-04-26T05:19:09.385Z,99827.66
2023-04-26T05:21:37.934Z,99827.97
2023-04-26T05:24:07.126Z,99831.54
2023-04-26T05:26:36.781Z,99833.77
2023-04-26T05:29:31.144Z,99834.95
2023-04-26T05:31:59.027Z,99835.23
2023-04-26T05:34:53.012Z,99843.14
2023-04-26T05:37:21.246Z,99837.63
2023-04-26T05:39:49.454Z,99842.73
2023-04-26T05:42:18.281Z,99837.91
2023-04-26T05:44:46.455Z,99844.21
2023-04-26T05:47:14.473Z,99841.91
2023-04-26T05:49:42.515Z,99845.56
2023-04-26T05:52:10.275Z,99844.17
2023-04-26T05:54:38.095Z,99842.98
2023-04-26T05:57:06.156Z,99842.50
2023-04-26T05:59:37.251Z,99840.91
2023-04-26T06:02:05.484Z,99845.90
2023-04-26T06:04:33.556Z,99845.55
2023-04-26T06:07:05.416Z,99844.70
2023-04-26T06:09:33.365Z,99846.82
2023-04-26T06:12:01.785Z,99850.01
2023-04-26T06:14:30.984Z,99848.02
2023-04-26T06:17:02.303Z,99848.36
2023-04-26T06:19:30.204Z,99853.15
2023-04-26T06:21:57.964Z,99851.41
2023-04-26T06:24:26.102Z,99850.75
2023-04-26T06:26:53.975Z,99853.34
2023-04-26T06:29:21.953Z,99850.80
2023-04-26T06:31:49.880Z,99850.58
2023-04-26T06:37:47.253Z,99850.01
2023-04-26T06:40:15.984Z,99853.11
2023-04-26T06:42:44.052Z,99851.19
2023-04-26T06:45:24.373Z,99853.60
2023-04-26T06:47:53.342Z,99852.86
2023-04-26T06:50:24.268Z,99856.77
2023-04-26T06:52:52.165Z,99856.56
2023-04-26T06:55:20.713Z,99859.27
2023-04-26T06:57:50.620Z,99860.37
2023-04-26T07:00:19.030Z,99860.23
2023-04-26T07:02:46.900Z,99862.85
2023-04-26T07:05:15.532Z,99862.55
2023-04-26T07:07:43.483Z,99867.96
2023-04-26T07:10:11.252Z,99872.38
2023-04-26T07:12:39.060Z,99872.65
2023-04-26T07:15:07.615Z,99875.88
2023-04-26T07:17:35.352Z,99873.21
2023-04-26T07:20:04.154Z,99873.81
2023-04-26T07:22:31.953Z,99875.97
2023-04-26T07:24:59.670Z,99881.16
2023-04-26T07:27:27.440Z,99881.48
2023-04-26T07:29:56.360Z,99884.01
2023-04-26T07:32:24.269Z,99884.13
2023-04-26T07:34:52.037Z,99886.06
2023-04-26T07:37:19.767Z,99882.20
2023-04-26T07:39:47.684Z,99888.28
2023-04-26T07:42:15.523Z,99885.55
2023-04-26T07:44:43.264Z,99888.19
2023-04-26T07:47:14.506Z,99891.14
2023-04-26T07:49:42.791Z,99891.41
2023-04-26T07:52:10.557Z,99888.42
2023-04-26T07:54:40.047Z,99889.90
2023-04-26T07:57:07.678Z,99891.77
2023-04-26T07:59:35.406Z,99893.82
2023-04-26T08:02:03.285Z,99891.20
2023-04-26T08:04:34.518Z,99889.42
2023-04-26T08:07:02.751Z,99897.41
2023-04-26T08:09:30.850Z,99895.76
2023-04-26T08:11:58.943Z,99896.14
2023-04-26T08:14:27.209Z,99899.66
2023-04-26T08:16:54.943Z,99900.75
2023-04-26T08:19:23.186Z,99903.68
2023-04-26T08:21:51.043Z,99904.05
2023-04-26T08:24:18.804Z,99904.23
2023-04-26T08:26:46.613Z,99901.05
2023-04-26T08:29:15.031Z,99903.80
2023-04-26T08:31:42.857Z,99907.10
2023-04-26T08:34:11.680Z,99905.73
2023-04-26T08:36:42.856Z,99907.41
2023-04-26T08:39:12.285Z,99908.77
2023-04-26T08:41:43.605Z,99898.50
2023-04-26T08:44:11.838Z,99899.61
2023-04-26T08:46:48.069Z,99901.67
2023-04-26T08:49:36.090Z,99905.54
2023-04-26T08:52:04.837Z,99910.73
2023-04-26T08:54:32.962Z,99907.59
2023-04-26T08:57:01.941Z,99909.02
2023-04-26T08:59:31.306Z,99913.62
2023-04-26T09:02:01.375Z,99909.84
2023-04-26T09:04:29.461Z,99912.33
2023-04-26T09:07:01.893Z,99917.27
2023-04-26T09:09:38.062Z,99922.14
2023-04-26T09:12:06.176Z,99927.86
2023-04-26T09:14:34.456Z,99928.77
2023-04-26T09:17:02.286Z,99921.39
2023-04-26T09:19:42.716Z,99931.45
2023-04-26T09:22:11.013Z,99927.92
2023-04-26T09:24:50.363Z,99933.73
2023-04-26T09:27:19.176Z,99935.52
2023-04-26T09:30:10.647Z,99936.85
2023-04-26T09:32:44.629Z,99935.86
2023-04-26T09:35:39.894Z,99938.77
2023-04-26T09:38:13.514Z,99937.83
2023-04-26T09:40:46.897Z,99936.00
2023-04-26T09:43:16.733Z,99939.06
2023-04-26T09:45:50.182Z,99932.76
2023-04-26T09:48:23.355Z,99938.44
2023-04-26T09:50:53.245Z,99940.11
2023-04-26T09:53:27.720Z,99936.85
2023-04-26T09:55:56.573Z,99941.23
2023-04-26T09:58:24.525Z,99933.14
2023-04-26T10:00:53.177Z,99936.48
2023-04-26T10:03:21.316Z,99940.48
2023-04-26T10:05:49.424Z,99945.08
2023-04-26T10:08:17.252Z,99938.42
2023-04-26T10:10:47.852Z,99942.77
2023-04-26T10:13:16.886Z,99940.07
2023-04-26T10:15:45.132Z,99942.88
2023-04-26T10:18:13.146Z,99942.73
2023-04-26T10:20:44.946Z,99945.95
2023-04-26T10:23:25.494Z,99947.02
2023-04-26T10:25:55.584Z,99945.04
2023-04-26T10:28:50.844Z,99939.27
2023-04-26T10:31:21.353Z,99939.07
2023-04-26T10:34:18.960Z,99940.75
2023-04-26T10:37:17.245Z,99941.66
2023-04-26T10:39:46.885Z,99953.39
2023-04-26T10:42:24.084Z,99959.07
2023-04-26T10:44:56.611Z,99952.65
2023-04-26T10:47:37.418Z,99955.97
2023-04-26T10:50:09.870Z,99952.46
2023-04-26T10:53:05.591Z,99960.82
2023-04-26T10:55:42.978Z,99958.54
2023-04-26T10:58:31.626Z,99966.05
2023-04-26T11:01:08.515Z,99963.86
2023-04-26T11:03:37.189Z,99966.52
2023-04-26T11:06:09.899Z,99966.52
2023-04-26T11:08:37.748Z,99971.56
2023-04-26T11:11:13.512Z,99968.02
2023-04-26T11:13:43.119Z,99971.30
2023-04-26T11:16:13.691Z,99977.07
2023-04-26T11:18:44.515Z,99985.58
2023-04-26T11:21:17.567Z,99987.60
2023-04-26T11:23:55.307Z,99985.69
2023-04-26T11:26:24.743Z,99991.54
2023-04-26T11:28:52.659Z,99986.52
2023-04-26T11:31:21.299Z,99991.80
2023-04-26T11:39:22.707Z,99994.04
2023-04-26T11:41:50.725Z,99993.19
2023-04-26T11:44:21.169Z,99993.33
2023-04-26T11:46:49.332Z,99987.09
2023-04-26T11:49:17.645Z,99990.16
2023-04-26T11:51:49.753Z,99986.86
2023-04-26T11:54:37.851Z,99989.51
2023-04-26T11:57:17.229Z,99993.11
2023-04-26T11:59:46.287Z,100000.11
2023-04-26T12:02:14.357Z,100004.35
2023-04-26T12:04:44.214Z,100008.52
2023-04-26T12:07:12.143Z,100007.52
2023-04-26T12:09:44.645Z,100010.65
2023-04-26T12:12:12.546Z,100013.48
2023-04-26T12:14:40.869Z,100012.14
2023-04-26T12:17:10.362Z,100021.19
2023-04-26T12:19:39.022Z,100024.98
2023-04-26T12:22:08.468Z,100030.83
2023-04-26T12:24:37.505Z,100034.98
2023-04-26T12:27:07.306Z,100034.77
2023-04-26T12:29:35.678Z,100036.53
2023-04-26T12:32:04.381Z,100034.29
2023-04-26T12:34:33.043Z,100031.81
2023-04-26T12:37:01.117Z,100028.73
2023-04-26T12:39:28.924Z,100033.98
2023-04-26T12:41:57.045Z,100037.44
2023-04-26T12:44:25.074Z,100035.44
2023-04-26T12:46:52.839Z,100036.31
2023-04-26T12:49:20.615Z,100039.02
2023-04-26T12:51:48.328Z,100044.13
2023-04-26T12:54:16.285Z,100048.59
2023-04-26T12:56:45.027Z,100047.71
2023-04-26T12:59:12.912Z,100047.71
2023-04-26T13:01:41.276Z,100053.00
2023-04-26T13:04:10.208Z,100051.03
2023-04-26T13:06:38.229Z,100047.34
2023-04-26T13:09:08.273Z,100049.92
2023-04-26T13:11:36.310Z,100049.84
2023-04-26T13:14:04.443Z,100035.66
2023-04-26T13:16:33.469Z,100046.79
2023-04-26T13:19:01.443Z,100045.08
2023-04-26T13:21:29.446Z,100050.19
2023-04-26T13:23:57.291Z,100054.02
2023-04-26T13:26:27.097Z,100049.30
2023-04-26T13:28:55.933Z,100045.12
2023-04-26T13:31:23.877Z,100044.93
2023-04-26T13:33:51.743Z,100050.45
2023-04-26T13:36:19.611Z,100057.79
2023-04-26T13:38:47.640Z,100056.52
2023-04-26T13:41:15.505Z,100060.02
2023-04-26T13:43:43.312Z,100064.61
2023-04-26T13:46:11.260Z,100061.59
2023-04-26T13:48:39.102Z,100063.53
2023-04-26T13:51:07.252Z,100064.15
2023-04-26T13:53:35.094Z,100065.14
2023-04-26T13:56:02.975Z,100064.42
2023-04-26T13:58:30.717Z,100071.12
2023-04-26T14:00:58.465Z,100073.50
2023-04-26T14:03:27.134Z,100080.91
2023-04-26T14:05:56.643Z,100082.71
2023-04-26T14:08:24.512Z,100081.65
2023-04-26T14:10:53.027Z,100085.28
2023-04-26T14:13:21.555Z,100088.27
2023-04-26T14:15:49.558Z,100094.09
2023-04-26T14:18:17.780Z,100095.45
2023-04-26T14:20:46.757Z,100099.69
2023-04-26T14:23:14.546Z,100103.52
2023-04-26T14:25:42.533Z,100110.85
2023-04-26T14:28:10.488Z,100109.20
2023-04-26T14:30:38.464Z,100112.75
2023-04-26T14:33:06.247Z,100118.64
2023-04-26T14:35:34.018Z,100114.98
2023-04-26T14:38:01.784Z,100119.33
2023-04-26T14:40:30.219Z,100122.46
2023-04-26T14:42:58.012Z,100123.73
2023-04-26T14:45:37.024Z,100126.41
2023-04-26T14:48:12.504Z,100121.06
2023-04-26T14:50:40.707Z,100125.90
2023-04-26T14:53:09.758Z,100126.14
2023-04-26T14:55:37.733Z,100130.35
2023-04-26T14:58:05.779Z,100130.16
2023-04-26T15:00:33.840Z,100127.35
2023-04-26T15:03:01.971Z,100127.60
2023-04-26T15:05:29.890Z,100132.40
2023-04-26T15:07:57.800Z,100135.76
2023-04-26T15:10:25.779Z,100137.78
2023-04-26T15:12:53.625Z,100139.56
2023-04-26T15:15:21.572Z,100141.63
2023-04-26T15:17:49.482Z,100147.02
2023-04-26T15:20:18.751Z,100144.11
2023-04-26T15:22:46.709Z,100148.14
2023-04-26T15:25:14.545Z,100152.19
2023-04-26T15:27:42.519Z,100155.72
2023-04-26T15:30:10.938Z,100156.41
2023-04-26T15:32:38.845Z,100157.92
2023-04-26T15:35:07.953Z,100155.36
2023-04-26T15:37:36.823Z,100155.91
2023-04-26T15:40:06.218Z,100155.20
2023-04-26T15:42:33.929Z,100156.98
2023-04-26T15:45:02.507Z,100154.73
2023-04-26T15:47:30.463Z,100151.96
2023-04-26T15:50:03.720Z,100154.08
2023-04-26T15:52:38.543Z,100156.33
2023-04-26T15:55:08.619Z,100155.64
2023-04-26T15:57:36.773Z,100153.65
2023-04-26T16:00:09.082Z,100158.34
2023-04-26T16:02:37.117Z,100156.17
2023-04-26T16:05:07.236Z,100157.20
2023-04-26T16:07:35.357Z,100158.10
2023-04-26T16:10:03.902Z,100162.03
2023-04-26T16:12:31.965Z,100160.11
2023-04-26T16:14:59.761Z,100167.44
2023-04-26T16:17:27.584Z,100173.46
2023-04-26T16:19:55.894Z,100167.86
2023-04-26T16:22:23.729Z,100161.13
2023-04-26T16:24:51.543Z,100159.61
2023-04-26T16:27:22.592Z,100163.27
2023-04-26T16:29:50.365Z,100164.80
2023-04-26T16:32:18.214Z,100170.72
2023-04-26T16:34:46.085Z,100170.05
2023-04-26T16:37:14.833Z,100171.13
2023-04-26T16:39:42.632Z,100169.16
2023-04-26T16:42:10.620Z,100172.36
2023-04-26T16:44:38.461Z,100170.26
2023-04-26T16:47:06.807Z,100173.58
2023-04-26T16:49:34.812Z,100173.10
2023-04-26T16:52:02.578Z,100179.33
2023-04-26T16:54:30.352Z,100177.86
2023-04-26T16:56:58.366Z,100177.98
2023-04-26T16:59:26.234Z,100176.62
2023-04-26T17:01:54.614Z,100173.48
2023-04-26T17:04:22.633Z,100170.78
2023-04-26T17:06:50.859Z,100169.77
2023-04-26T17:09:18.748Z,100179.43
2023-04-26T17:11:46.936Z,100182.48
2023-04-26T17:14:15.601Z,100184.52
2023-04-26T17:16:43.524Z,100188.52
2023-04-26T17:19:11.695Z,100188.75
2023-04-26T17:21:39.455Z,100194.21
2023-04-26T17:24:08.865Z,100198.26
2023-04-26T17:26:36.962Z,100199.22
2023-04-26T17:29:04.928Z,100205.25
2023-04-26T17:31:32.942Z,100207.02
2023-04-26T17:34:03.296Z,100205.27
2023-04-26T17:36:32.475Z,100208.52
2023-04-26T17:39:00.646Z,100210.10
2023-04-26T17:41:28.480Z,100209.40
2023-04-26T17:43:56.294Z,100211.95
2023-04-26T17:46:24.132Z,100216.94
2023-04-26T17:48:52.206Z,100222.92
2023-04-26T17:51:20.022Z,100221.52
2023-04-26T17:53:47.795Z,100225.27
2023-04-26T17:56:15.573Z,100228.02
2023-04-26T17:58:43.496Z,100230.04
2023-04-26T18:01:11.525Z,100228.85
2023-04-26T18:03:39.663Z,100228.70
2023-04-26T18:06:07.624Z,100235.69
2023-04-26T18:08:35.492Z,100245.29
2023-04-26T18:11:03.265Z,100246.36
2023-04-26T18:13:31.599Z,100252.99
2023-04-26T18:15:59.432Z,100251.04
2023-04-26T18:18:29.637Z,100250.14
2023-04-26T18:20:57.800Z,100253.80
2023-04-26T18:23:25.785Z,100259.74
2023-04-26T18:25:53.539Z,100259.42
2023-04-26T18:28:22.077Z,100261.05
2023-04-26T18:30:49.841Z,100265.16
2023-04-26T18:33:17.844Z,100267.60
2023-04-26T18:35:49.069Z,100270.70
2023-04-26T18:38:17.719Z,100272.64
2023-04-26T18:40:49.786Z,100273.76
2023-04-26T18:43:17.937Z,100274.11
2023-04-26T18:45:45.964Z,100277.44
2023-04-26T18:48:13.782Z,100280.81
2023-04-26T18:50:48.983Z,100277.27
2023-04-26T18:53:17.556Z,100283.59
2023-04-26T18:55:45.415Z,100283.08
2023-04-26T18:58:13.390Z,100285.52
2023-04-26T19:00:41.230Z,100287.23
2023-04-26T19:03:09.194Z,100293.13
2023-04-26T19:05:41.301Z,100295.64
2023-04-26T19:08:09.682Z,100301.84
2023-04-26T19:10:37.791Z,100299.07
2023-04-26T19:13:05.850Z,100299.91
2023-04-26T19:15:33.553Z,100302.70
2023-04-26T19:18:01.581Z,100306.48
2023-04-26T19:20:29.544Z,100306.80
2023-04-26T19:22:57.297Z,100305.70
2023-04-26T19:25:26.758Z,100306.05
2023-04-26T19:27:54.586Z,100305.04
2023-04-26T19:30:22.352Z,100310.58
2023-04-26T19:32:51.070Z,100308.54
2023-04-26T19:35:19.059Z,100306.33
2023-04-26T19:37:46.892Z,100306.36
2023-04-26T19:40:14.968Z,100307.56
2023-04-26T19:42:42.753Z,100307.91
2023-04-26T19:45:11.016Z,100309.79
2023-04-26T19:47:41.736Z,100312.55
2023-04-26T19:50:10.186Z,100313.52
2023-04-26T19:52:37.917Z,100314.99
2023-04-26T19:55:05.852Z,100314.79
2023-04-26T19:57:33.814Z,100313.59
2023-04-26T20:00:01.761Z,100313.52
2023-04-26T20:02:35.051Z,100318.64
2023-04-26T20:05:03.369Z,100312.70
2023-04-26T20:07:31.802Z,100312.59
2023-04-26T20:09:59.847Z,100315.50
2023-04-26T20:12:27.630Z,100319.25
2023-04-26T20:14:55.439Z,100318.13
2023-04-26T20:17:23.289Z,100320.43
2023-04-26T20:19:51.728Z,100321.55
2023-04-26T20:22:19.457Z,100323.44
2023-04-26T20:24:47.383Z,100322.17
2023-04-26T20:27:15.120Z,100330.46
2023-04-26T20:29:42.863Z,100328.91
2023-04-26T20:32:10.658Z,100326.21
2023-04-26T20:34:38.672Z,100327.91
2023-04-26T20:37:06.456Z,100327.73
2023-04-26T20:39:34.194Z,100323.92
2023-04-26T20:42:02.357Z,100324.97
2023-04-26T20:44:30.115Z,100328.34
2023-04-26T20:46:57.970Z,100328.96
2023-04-26T20:49:25.757Z,100332.75
2023-04-26T20:51:54.620Z,100332.34
2023-04-26T20:54:22.425Z,100337.45
2023-04-26T20:56:50.237Z,100336.64
2023-04-26T20:59:18.034Z,100338.89
2023-04-26T21:01:46.043Z,100340.02
2023-04-26T21:04:14.000Z,100340.58
2023-04-26T21:06:41.842Z,100342.67
2023-04-26T21:09:09.828Z,100344.09
2023-04-26T21:11:37.780Z,100340.73
2023-04-26T21:14:06.850Z,100341.35
2023-04-26T21:16:35.597Z,100347.11
2023-04-26T21:19:03.567Z,100351.31
2023-04-26T21:21:32.556Z,100352.02
2023-04-26T21:24:00.951Z,100357.83
2023-04-26T21:26:28.777Z,100359.75
2023-04-26T21:28:56.576Z,100361.92
2023-04-26T21:31:24.414Z,100361.07
2023-04-26T21:33:53.360Z,100365.60
2023-04-26T21:39:06.713Z,100368.83
2023-04-26T21:41:34.525Z,100368.48
2023-04-26T21:44:02.206Z,100373.98
2023-04-26T21:46:30.212Z,100376.65
2023-04-26T21:48:58.248Z,100379.94
2023-04-26T21:51:25.973Z,100385.40
2023-04-26T21:53:53.782Z,100386.73
2023-04-26T21:56:21.785Z,100386.05
2023-04-26T21:58:49.535Z,100387.17
2023-04-26T22:01:17.511Z,100386.00
2023-04-26T22:03:45.599Z,100391.17
2023-04-26T22:06:13.465Z,100392.89
2023-04-26T22:08:41.379Z,100395.20
2023-04-26T22:11:09.229Z,100395.70
2023-04-26T22:13:37.024Z,100399.24
2023-04-26T22:16:05.156Z,100401.17
2023-04-26T22:18:33.004Z,100398.27
2023-04-26T22:21:01.052Z,100397.28
2023-04-26T22:23:28.886Z,100404.01
2023-04-26T22:25:58.192Z,100401.94
2023-04-26T22:28:26.771Z,100403.71
2023-04-26T22:30:54.559Z,100403.52
2023-04-26T22:33:22.389Z,100409.30
2023-04-26T22:35:50.187Z,100411.75
2023-04-26T22:38:18.025Z,100411.13
2023-04-26T22:40:45.818Z,100414.92
2023-04-26T22:43:13.514Z,100419.88
2023-04-26T22:45:41.354Z,100421.48
2023-04-26T22:48:09.148Z,100421.69
2023-04-26T22:50:36.961Z,100424.39
2023-04-26T22:53:04.763Z,100424.99
2023-04-26T22:55:32.607Z,100426.55
2023-04-26T22:58:00.504Z,100426.04
2023-04-26T23:00:28.299Z,100431.27
2023-04-26T23:02:56.191Z,100432.77
2023-04-26T23:05:24.093Z,100441.67
2023-04-26T23:07:52.453Z,100443.98
2023-04-26T23:10:20.473Z,100446.10
2023-04-26T23:12:50.116Z,100451.19
2023-04-26T23:15:18.674Z,100452.55
2023-04-26T23:17:47.067Z,100453.05
2023-04-26T23:20:15.925Z,100452.13
2023-04-26T23:22:44.033Z,100453.67
2023-04-26T23:25:11.899Z,100456.92
2023-04-26T23:27:39.916Z,100459.94
2023-04-26T23:30:08.389Z,100456.99
2023-04-26T23:32:36.873Z,100455.09
2023-04-26T23:35:05.571Z,100457.91
2023-04-26T23:37:33.412Z,100456.64
2023-04-26T23:40:01.489Z,100458.92
2023-04-26T23:42:29.346Z,100460.48
2023-04-26T23:44:57.059Z,100462.92
2023-04-26T23:47:25.510Z,100462.34
2023-04-26T23:49:53.435Z,100464.01
2023-04-26T23:52:21.272Z,100461.42
2023-04-26T23:54:49.098Z,100465.69
2023-04-26T23:57:16.993Z,100463.75
2023-04-26T23:59:44.796Z,100462.38
